Аэропорт: Уральск. Уральск

ICAO: UARR

METAR:
2021-07-28 14:30:00
UARR 281430Z 35007MPS CAVOK 28/03 Q1013 R04/CLRD70 NOSIG RMK QFE756/1008
METAR:
2021-07-28 14:00:00
TAF UARR 281400Z 2815/2824 02006MPS CAVOK TEMPO 2815/2818 33004G09MPS